Flight Track Log - Related Links

Times and Time Zones

All times are in EST time to prevent confusion due to time zone crossing. See the EJA922 flight status page for this flight to view local times or setup timezone preferences in your user account.

Time Position Orientation Groundspeed Altitude Reporting Facility
EST Latitude Longitude Course Direction KTS MPH feet Rate Location/Type
Sat 06:55:49 PM 39.2656 -106.8819 305° West 228 262 41,000  Level Denver Center
Sat 06:56:51 PM 39.3036 -106.9511 305° West 271 312 12,400 -12,145 Descending Denver Center
Sat 06:57:53 PM 39.3261 -107.0431 288° West 266 306 15,900 2,244 Climbing Denver Center
Sat 06:58:54 PM 39.4322 -107.0442 360° North 360 414 17,000 1,268 Climbing Denver Center
Sat 06:59:56 PM 39.5375 -107.0167 11° North 398 458 18,500 1,707 Climbing Denver Center
Sat 07:00:57 PM 39.6608 -106.9825 12° North 407 468 20,500 1,756 Climbing Denver Center
Sat 07:01:59 PM 39.7597 -106.9547 12° North 420 483 22,100 1,659 Climbing Denver Center
Sat 07:03:00 PM 39.8756 -106.9197 13° North 424 488 23,900 1,902 Climbing Denver Center
Sat 07:04:02 PM 39.9933 -106.8214 33° Northeast 452 520 26,000 1,902 Climbing Denver Center
Sat 07:05:03 PM 40.0358 -106.6661 70° East 475 547 27,800 1,805 Climbing Denver Center
Sat 07:06:05 PM 40.0650 -106.4811 78° East 476 548 29,700 1,756 Climbing Denver Center
Sat 07:07:06 PM 40.0939 -106.3092 78° East 483 556 31,400 1,426 Climbing Denver Center
Sat 07:08:07 PM 40.1219 -106.1311 78° East 497 572 32,600 1,220 Climbing Denver Center
Sat 07:09:09 PM 40.1506 -105.9497 78° East 507 583 33,900 1,268 Climbing Denver Center
Sat 07:10:10 PM 40.1792 -105.7661 78° East 515 593 35,200 1,317 Climbing Denver Center
Sat 07:11:12 PM 40.2081 -105.5794 78° East 522 601 36,600 1,268 Climbing Denver Center
Sat 07:12:13 PM 40.2364 -105.3900 79° East 528 608 37,800 1,328 Climbing Denver Center
Sat 07:13:14 PM 40.2703 -105.1675 79° East 521 600 39,300 1,415 Climbing Denver Center
Sat 07:14:16 PM 40.2981 -104.9828 79° East 516 594 40,700 829 Climbing Denver Center
Sat 07:15:17 PM 40.3244 -104.8000 79° East 511 588 41,000 146 Climbing Denver Center
Sat 07:16:19 PM 40.3531 -104.6092 79° East 523 602 41,000  Level Denver Center
Sat 07:17:20 PM 40.3814 -104.4150 79° East 535 616 41,000  Level Denver Center
Sat 07:18:21 PM 40.4092 -104.2139 80° East 551 634 41,000  Level Denver Center
Sat 07:19:23 PM 40.4383 -104.0142 79° East 556 640 41,000  Level Denver Center
Sat 07:20:24 PM 40.4664 -103.8122 80° East 561 646 41,000  Level Denver Center
Sat 07:21:26 PM 40.4925 -103.6158 80° East 549 632 41,000  Level Denver Center
Sat 07:22:27 PM 40.5192 -103.4239 80° East 536 617 41,000 49 Level Denver Center
Sat 07:23:28 PM 40.5500 -103.1919 80° East 538 619 41,100 537 Climbing Denver Center
Sat 07:24:30 PM 40.5744 -103.0036 80° East 526 605 42,100 878 Climbing Denver Center
Sat 07:25:31 PM 40.5992 -102.8186 80° East 517 595 42,900 439 Climbing Denver Center
Sat 07:26:33 PM 40.6244 -102.6247 80° East 513 590 43,000 49 Climbing Denver Center
Sat 07:27:34 PM 40.6478 -102.4431 80° East 523 602 43,000  Level Denver Center
Sat 07:28:36 PM 40.6700 -102.2583 81° East 532 612 43,000  Level Denver Center
Sat 07:29:37 PM 40.6967 -102.0397 81° East 540 621 43,000  Level Denver Center
Sat 07:30:38 PM 40.7203 -101.8528 80° East 541 623 43,000  Level Denver Center
Sat 07:31:40 PM 40.7469 -101.6344 81° East 541 623 43,000  Level Denver Center
Sat 07:32:41 PM 40.7697 -101.4450 81° East 546 628 43,000  Level Denver Center
Sat 07:33:42 PM 40.7919 -101.2533 81° East 551 634 43,000  Level Denver Center
Sat 07:34:44 PM 40.8175 -101.0278 81° East 556 640 43,000  Level Denver Center
Sat 07:35:45 PM 40.8403 -100.8328 81° East 559 643 43,000  Level Denver Center
Sat 07:36:46 PM 40.8642 -100.6236 81° East 561 646 43,000  Level Denver Center
Sat 07:37:48 PM 40.8883 -100.3961 82° East 561 646 43,000  Level Denver Center
Sat 07:38:49 PM 40.9086 -100.2011 82° East 560 644 43,000  Level Denver Center
Sat 07:39:51 PM 40.9289 -100.0064 82° East 560 644 43,000  Level Denver Center
Sat 07:40:52 PM 40.9514 -99.7922 82° East 558 642 43,000  Level Denver Center
Sat 07:41:55 PM 40.9722 -99.5889 82° East 560 644 43,000  Level Denver Center
Sat 07:42:55 PM 40.9919 -99.3847 83° East 561 646 43,000  Level Denver Center
Sat 07:43:56 PM 41.0119 -99.1822 82° East 559 643 43,000 -47 Level Denver Center
Sat 07:45:02 PM 41.0336 -98.9506 83° East 558 642 42,900  Descending Minneapolis Center
Sat 07:46:03 PM 41.0533 -98.7478 83° East 557 641 43,000 49 Climbing Minneapolis Center
Sat 07:47:04 PM 41.0725 -98.5442 83° East 558 642 43,000  Level Minneapolis Center
Sat 07:48:05 PM 41.0900 -98.3447 83° East 556 640 43,000  Level Minneapolis Center
Sat 07:49:05 PM 41.1078 -98.1422 83° East 555 639 43,000  Level Minneapolis Center
Sat 07:50:06 PM 41.1283 -97.9008 83° East 551 634 43,000  Level Minneapolis Center
Sat 07:51:07 PM 41.1456 -97.6994 83° East 550 633 43,000  Level Minneapolis Center
Sat 07:52:08 PM 41.1622 -97.4986 84° East 550 633 43,000  Level Minneapolis Center
Sat 07:53:09 PM 41.1786 -97.2933 84° East 550 633 43,000  Level Minneapolis Center
Sat 07:54:10 PM 41.1950 -97.0931 84° East 548 631 43,000  Level Minneapolis Center
Sat 07:55:11 PM 41.2100 -96.8942 84° East 545 627 43,000  Level Minneapolis Center
Sat 07:56:12 PM 41.2258 -96.6956 84° East 542 624 43,000  Level Minneapolis Center
Sat 07:57:13 PM 41.2403 -96.4953 84° East 547 629 43,000  Level Minneapolis Center
Sat 07:58:13 PM 41.2553 -96.2978 84° East 545 627 43,000  Level Minneapolis Center
Sat 07:59:14 PM 41.2672 -96.0992 85° East 541 623 43,000 -492 Level Minneapolis Center
Sat 08:00:15 PM 41.2817 -95.8956 85° East 551 634 42,000 -934 Descending Minneapolis Center
Sat 08:01:16 PM 41.2958 -95.6917 85° East 552 635 41,100 -492 Descending Minneapolis Center
Sat 08:02:17 PM 41.3097 -95.4647 85° East 551 634 41,000 -49 Descending Minneapolis Center
Sat 08:03:18 PM 41.3228 -95.2611 85° East 553 636 41,000  Level Minneapolis Center
Sat 08:04:18 PM 41.3353 -95.0569 85° East 554 638 41,000  Level Minneapolis Center
Sat 08:05:19 PM 41.3464 -94.8536 86° East 552 635 41,000  Level Minneapolis Center
Sat 08:06:20 PM 41.3583 -94.6508 85° East 550 633 41,000  Level Minneapolis Center
Sat 08:07:21 PM 41.3722 -94.4508 85° East 547 629 41,000  Level Minneapolis Center
Sat 08:08:22 PM 41.3828 -94.2486 86° East 547 629 41,000  Level Minneapolis Center
Sat 08:09:23 PM 41.3908 -94.0447 87° East 550 633 41,000  Level Minneapolis Center
Sat 08:10:23 PM 41.4022 -93.8428 86° East 551 634 41,000  Level Minneapolis Center
Sat 08:11:24 PM 41.4122 -93.6431 86° East 549 632 41,000 295 Level Minneapolis Center
Sat 08:12:25 PM 41.4225 -93.4447 86° East 544 626 41,600 738 Climbing Minneapolis Center
Sat 08:13:26 PM 41.4306 -93.2544 87° East 529 609 42,500 689 Climbing Minneapolis Center
Sat 08:14:27 PM 41.4397 -93.0639 86° East 521 600 43,000 246 Climbing Minneapolis Center
Sat 08:15:28 PM 41.4475 -92.8717 87° East 520 598 43,000  Level Minneapolis Center
Sat 08:16:28 PM 41.4581 -92.6339 87° East 530 610 43,000  Level Minneapolis Center
Sat 08:17:29 PM 41.4647 -92.4322 87° East 539 620 43,000  Level Minneapolis Center
Sat 08:18:30 PM 41.4722 -92.2303 87° East 545 627 43,000  Level Minneapolis Center
Sat 08:19:31 PM 41.4803 -92.0283 87° East 546 628 43,000  Level Minneapolis Center
Sat 08:20:32 PM 41.4864 -91.8256 88° East 548 631 43,000  Level Minneapolis Center
Sat 08:21:50 PM 41.4947 -91.5767 87° East 549 632 43,000  Level Chicago Center
Sat 08:22:51 PM 41.5006 -91.3750 88° East 547 629 43,000  Level Chicago Center
Sat 08:23:52 PM 41.5050 -91.1583 88° East 549 632 43,000  Level Chicago Center
Sat 08:24:53 PM 41.5108 -90.9525 88° East 552 635 43,000  Level Chicago Center
Sat 08:25:54 PM 41.5153 -90.7461 88° East 554 638 43,000  Level Chicago Center
Sat 08:26:55 PM 41.5197 -90.5436 88° East 548 631 43,000  Level Chicago Center
Sat 08:27:56 PM 41.5239 -90.3397 88° East 549 632 43,000  Level Chicago Center
Sat 08:28:57 PM 41.5281 -90.1339 88° East 551 634 43,000  Level Chicago Center
Sat 08:29:58 PM 41.5317 -89.9294 89° East 550 633 43,000  Level Chicago Center
Sat 08:30:59 PM 41.5353 -89.7264 89° East 546 628 43,000  Level Chicago Center
Sat 08:32:00 PM 41.5381 -89.4950 89° East 546 628 43,000  Level Chicago Center
Sat 08:33:01 PM 41.5408 -89.2953 89° East 543 625 43,000  Level Chicago Center
Sat 08:34:02 PM 41.5428 -89.0944 89° East 543 625 43,000  Level Chicago Center
Sat 08:35:03 PM 41.5436 -88.8931 90° East 544 626 43,000  Level Chicago Center
Sat 08:36:04 PM 41.5450 -88.6928 89° East 543 625 43,000  Level Chicago Center
Sat 08:37:05 PM 41.5464 -88.4892 89° East 547 629 43,000  Level Chicago Center
Sat 08:38:05 PM 41.5497 -88.2831 89° East 554 638 43,000  Level Chicago Center
Sat 08:39:06 PM 41.5731 -88.0781 81° East 551 634 43,000  Level Chicago Center
Sat 08:40:07 PM 41.5989 -87.8717 80° East 555 639 43,000  Level Chicago Center
Sat 08:41:08 PM 41.6225 -87.6694 81° East 550 633 43,000  Level Chicago Center
Sat 08:42:09 PM 41.6447 -87.4694 81° East 545 627 43,000  Level Chicago Center
Sat 08:43:10 PM 41.6667 -87.2678 82° East 548 631 43,000  Level Chicago Center
Sat 08:44:11 PM 41.6917 -87.0281 82° East 545 627 43,000  Level Chicago Center
Sat 08:45:12 PM 41.7100 -86.8272 83° East 546 628 43,000  Level Chicago Center
Sat 08:46:13 PM 41.7275 -86.6211 83° East 555 639 43,000  Level Chicago Center
Sat 08:47:14 PM 41.7467 -86.4189 83° East 552 635 43,000  Level Chicago Center
Sat 08:48:15 PM 41.7661 -86.2169 83° East 549 632 43,000  Level Chicago Center
Sat 08:49:16 PM 41.7833 -86.0178 83° East 540 621 43,000  Level Chicago Center
Sat 08:50:17 PM 41.8011 -85.8156 83° East 542 624 43,000  Level Chicago Center
Sat 08:51:18 PM 41.8192 -85.6114 83° East 545 627 43,000  Level Chicago Center
Sat 08:52:19 PM 41.8361 -85.4039 84° East 549 632 43,000  Level Chicago Center
Sat 08:53:20 PM 41.8531 -85.2008 84° East 541 623 43,000  Level Chicago Center
Sat 08:54:21 PM 41.8697 -84.9986 84° East 542 624 43,000  Level Chicago Center
Sat 08:55:22 PM 41.8861 -84.7947 84° East 549 632 43,000  Level Chicago Center
Sat 08:56:23 PM 41.9050 -84.5936 83° East 544 626 43,000  Level Chicago Center
Sat 08:57:24 PM 41.9278 -84.3953 81° East 539 620 43,000  Level Chicago Center
Sat 08:58:25 PM 41.9486 -84.1936 82° East 544 626 43,000  Level Chicago Center
Sat 08:59:26 PM 41.9706 -83.9881 82° East 542 624 43,000  Level Chicago Center
Sat 09:00:26 PM 41.9911 -83.7883 82° East 543 625 43,000  Level Chicago Center
Sat 09:01:50 PM 42.0192 -83.5092 82° East 542 624 43,000  Level Cleveland Center
Sat 09:02:51 PM 42.0383 -83.3047 83° East 546 628 43,000  Level Cleveland Center
Sat 09:03:51 PM 42.0583 -83.0961 83° East 549 632 43,000  Level Cleveland Center
Sat 09:04:52 PM 42.0778 -82.8931 83° East 552 635 43,000  Level Cleveland Center
Sat 09:05:53 PM 42.0956 -82.6897 83° East 553 636 43,000  Level Cleveland Center
Sat 09:06:54 PM 42.1106 -82.4853 84° East 553 636 43,000  Level Cleveland Center
Sat 09:07:55 PM 42.1364 -82.2375 82° East 558 642 43,000  Level Cleveland Center
Sat 09:08:56 PM 42.1511 -82.0572 84° East 555 639 43,000  Level Cleveland Center
Sat 09:09:57 PM 42.1694 -81.8447 83° East 561 646 43,000  Level Cleveland Center
Sat 09:10:58 PM 42.1869 -81.6325 84° East 563 648 43,000  Level Cleveland Center
Sat 09:11:58 PM 42.2044 -81.4194 84° East 564 649 43,000  Level Cleveland Center
Sat 09:12:59 PM 42.2211 -81.2042 84° East 568 654 43,000  Level Cleveland Center
Sat 09:14:00 PM 42.2378 -80.9906 84° East 567 652 43,000  Level Cleveland Center
Sat 09:15:01 PM 42.2539 -80.7769 84° East 567 652 43,000  Level Cleveland Center
Sat 09:16:02 PM 42.2697 -80.5622 84° East 568 654 43,000  Level Cleveland Center
Sat 09:17:03 PM 42.2856 -80.3486 84° East 568 654 43,000  Level Cleveland Center
Sat 09:18:04 PM 42.3014 -80.1347 84° East 567 652 43,000  Level Cleveland Center
Sat 09:19:04 PM 42.3175 -79.8922 85° East 570 656 43,000  Level Cleveland Center
Sat 09:20:05 PM 42.3306 -79.6814 85° East 568 654 43,000  Level Cleveland Center
Sat 09:21:06 PM 42.3447 -79.4661 85° East 574 661 43,000  Level Cleveland Center
Sat 09:22:07 PM 42.3578 -79.2508 85° East 576 663 43,000  Level Cleveland Center
Sat 09:23:08 PM 42.3708 -79.0342 85° East 577 664 43,000  Level Cleveland Center
Sat 09:24:09 PM 42.3819 -78.8286 86° East 577 664 43,000  Level Cleveland Center
Sat 09:25:10 PM 42.3944 -78.6119 85° East 580 667 43,000  Level Cleveland Center
Sat 09:26:11 PM 42.4089 -78.3522 86° East 579 666 43,000  Level Cleveland Center
Sat 09:27:11 PM 42.4208 -78.1361 86° East 579 666 43,000  Level Cleveland Center
Sat 09:28:12 PM 42.4308 -77.9214 86° East 579 666 43,000  Level Cleveland Center
Sat 09:29:13 PM 42.4397 -77.7308 86° East 582 670 43,000  Level Cleveland Center
Sat 09:30:14 PM 42.4525 -77.4689 86° East 583 671 43,000 -393 Level Cleveland Center
Sat 09:31:15 PM 42.4617 -77.2811 86° East 578 665 42,200 -1,967 Descending Cleveland Center
Sat 09:32:16 PM 42.4708 -77.0603 87° East 589 678 39,000 -3,124 Descending Cleveland Center
Sat 09:33:16 PM 42.4794 -76.8397 87° East 589 678 35,900 -3,273 Descending Cleveland Center
Sat 09:33:55 PM 42.4883 -76.6728 86° East 569 655 33,600 -1,706 Descending Boston Center
Sat 09:34:58 PM 42.4928 -76.4547 88° East 576 663 33,000 -488 Descending Boston Center
Sat 09:35:58 PM 42.4542 -76.2603 105° East 543 625 32,600 -850 Descending Boston Center
Sat 09:36:58 PM 42.4189 -76.0875 105° East 524 603 31,300 -1,587 Descending Boston Center
Sat 09:37:59 PM 42.3786 -75.8956 106° East 530 610 29,400 -2,083 Descending Boston Center
Sat 09:38:59 PM 42.3386 -75.7044 106° East 532 612 27,100 -2,450 Descending Boston Center
Sat 09:39:59 PM 42.2989 -75.5144 106° East 517 595 24,500 -2,341 Descending Boston Center
Sat 09:41:02 PM 42.2614 -75.3378 106° East 496 571 22,300 -2,195 Descending Boston Center
Sat 09:42:02 PM 42.2244 -75.1681 106° East 479 551 20,000 -1,636 Descending Boston Center
Sat 09:43:03 PM 42.1808 -74.9769 107° East 470 541 19,000 -545 Descending Boston Center
Sat 09:44:03 PM 42.1267 -74.8308 117° Southeast 448 516 18,900 -857 Descending Boston Center
Sat 09:45:02 PM 42.0731 -74.7025 119° Southeast 407 468 17,300 -1,388 Descending Boston Center
Sat 09:46:04 PM 42.0194 -74.5775 120° Southeast 387 445 16,100 -1,317 Descending Boston Center
Sat 09:47:05 PM 41.9656 -74.4539 120° Southeast 383 441 14,600 -1,462 Descending Boston Center
Sat 09:48:03 PM 41.9147 -74.3303 119° Southeast 375 432 13,200 -1,412 Descending Boston Center
Sat 09:49:04 PM 41.8628 -74.2125 121° Southeast 364 419 11,800 -1,403 Descending Boston Center
Sat 09:50:07 PM 41.8089 -74.1039 124° Southeast 350 403 10,300 -878 Descending Boston Center
Sat 09:51:07 PM 41.7561 -74.0011 125° Southeast 334 384 10,000 -694 Descending Boston Center
Sat 09:52:08 PM 41.6850 -73.9633 158° South 269 310 8,900 -1,271 Descending Boston Center
Sat 09:53:05 PM 41.6167 -73.9500 172° South 255 293 7,500 -1,385 Descending New York TRACON
Sat 09:54:05 PM 41.5500 -73.9333 169° South 260 299 6,200 -1,250 Descending New York TRACON
Sat 09:55:05 PM 41.4667 -73.9167 171° South 248 285 5,000 -1,250 Descending New York TRACON
Sat 09:56:05 PM 41.4000 -73.9000 169° South 250 288 3,700 -905 Descending New York TRACON
Sat 09:57:11 PM 41.3333 -73.8833 169° South 205 236 3,100 -238 Descending New York TRACON
Sat 09:58:11 PM 41.2833 -73.8667 166° South 194 223 3,200 50 Climbing New York TRACON
Sat 09:59:11 PM 41.2333 -73.8333 153° Southeast 215 247 3,200 -53 Level New York TRACON
Sat 10:00:05 PM 41.2000 -73.8000 143° Southeast 201 231 3,100 -421 Descending New York TRACON
Sat 10:01:05 PM 41.1500 -73.7667 153° Southeast 140 161 2,400 -700 Descending New York TRACON
Sat 10:02:05 PM 41.1167 -73.7500 159° South 135 155 1,700 -700 Descending New York TRACON
Sat 10:03:05 PM 41.0833 -73.7167 143° Southeast 136 157 1,000 -700 Descending New York TRACON
Sat 10:05:00 PM 41.0667 -73.7000 246° West  Level FlightAware Approximate

Login

Don't have an account? Register now (free) for customized features, flight alerts, and more!